createdAt,value
2023-01-30T00:00:45.132Z,57.40
2023-01-30T00:10:51.558Z,61.83
2023-01-30T00:20:57.532Z,55.83
2023-01-30T00:31:01.948Z,54.13
2023-01-30T00:41:05.272Z,56.70
2023-01-30T00:51:09.632Z,54.83
2023-01-30T01:11:24.594Z,55.95
2023-01-30T01:21:28.163Z,53.42
2023-01-30T01:31:32.872Z,52.97
2023-01-30T01:41:35.866Z,50.65
2023-01-30T01:51:46.893Z,53.92
2023-01-30T02:01:53.225Z,53.10
2023-01-30T02:12:03.171Z,47.13
2023-01-30T02:22:23.543Z,52.42
2023-01-30T02:32:32.715Z,52.95
2023-01-30T02:42:39.906Z,50.22
2023-01-30T02:52:46.352Z,46.63
2023-01-30T03:03:11.499Z,54.00
2023-01-30T03:13:24.995Z,56.58
2023-01-30T03:23:28.607Z,60.72
2023-01-30T09:56:36.875Z,30.50
2023-01-30T10:06:52.208Z,27.30
2023-01-30T10:17:08.577Z,26.83
2023-01-30T10:27:16.263Z,33.70
2023-01-30T10:37:28.227Z,28.67
2023-01-30T10:47:56.267Z,29.27
2023-01-30T13:41:11.963Z,26.83
2023-01-30T15:23:43.061Z,33.33
2023-01-30T15:33:47.997Z,28.33
2023-01-30T15:44:07.060Z,28.60
2023-01-30T15:54:12.297Z,28.00
2023-01-30T16:04:29.596Z,35.15
2023-01-30T16:14:34.239Z,27.48
2023-01-30T16:24:39.323Z,23.93
2023-01-30T16:44:46.513Z,37.95
2023-01-30T16:54:52.137Z,33.50
2023-01-30T17:04:56.822Z,38.63
2023-01-30T17:15:27.708Z,28.60
2023-01-30T17:25:38.623Z,35.95
2023-01-30T17:35:41.809Z,39.50
2023-01-30T17:45:46.207Z,34.05
2023-01-30T17:55:49.557Z,30.23
2023-01-30T18:05:53.958Z,43.28
2023-01-30T18:16:00.889Z,29.13
2023-01-30T18:26:05.596Z,36.08
2023-01-30T18:36:10.715Z,43.95
2023-01-30T18:46:16.840Z,45.97
2023-01-30T18:56:21.884Z,42.67
2023-01-30T19:16:32.492Z,45.08
2023-01-30T19:26:37.162Z,46.90
2023-01-30T19:36:41.507Z,51.75
2023-01-30T19:46:46.327Z,46.37
2023-01-30T19:56:49.541Z,37.22
2023-01-30T20:06:53.928Z,39.47
2023-01-30T20:16:56.996Z,30.80
2023-01-30T20:27:01.679Z,34.00
2023-01-30T20:37:04.873Z,50.78
2023-01-30T20:47:09.924Z,31.10
2023-01-30T21:07:17.462Z,31.05
2023-01-30T21:17:20.670Z,35.67
2023-01-30T21:27:25.384Z,30.95
2023-01-30T21:37:46.064Z,28.52
2023-01-30T21:47:54.319Z,30.60
2023-01-30T21:57:58.081Z,46.20
2023-01-30T22:08:02.914Z,41.95
2023-01-30T22:18:06.117Z,49.92
2023-01-30T22:28:10.458Z,32.75
2023-01-30T22:38:13.467Z,42.43
2023-01-30T22:48:17.815Z,32.72
2023-01-30T22:58:20.766Z,41.20
2023-01-30T23:08:25.765Z,29.08
2023-01-30T23:18:47.576Z,36.72
2023-01-30T23:28:52.201Z,33.90
2023-01-30T23:38:56.825Z,37.80
2023-01-30T23:49:02.611Z,30.25
2023-01-30T23:59:06.368Z,43.53
